createdAt,value
2018-08-16T00:00:52.086Z,85.03
2018-08-16T00:01:52.345Z,85.32
2018-08-16T00:02:52.093Z,85.32
2018-08-16T00:03:52.346Z,85.36
2018-08-16T00:04:52.344Z,84.88
2018-08-16T00:05:52.091Z,85.32
2018-08-16T00:06:52.358Z,84.78
2018-08-16T00:07:52.093Z,84.84
2018-08-16T00:08:52.352Z,84.94
2018-08-16T00:09:52.096Z,84.84
2018-08-16T00:10:52.355Z,85.17
2018-08-16T00:11:52.351Z,84.78
2018-08-16T00:12:52.505Z,85.17
2018-08-16T00:13:52.358Z,84.98
2018-08-16T00:14:52.350Z,85.07
2018-08-16T00:15:52.356Z,84.5
2018-08-16T00:16:52.118Z,84.69
2018-08-16T00:17:52.375Z,84.36
2018-08-16T00:18:52.111Z,84.36
2018-08-16T00:19:52.108Z,84.94
2018-08-16T00:20:52.111Z,84.94
2018-08-16T00:21:52.112Z,85.32
2018-08-16T00:22:52.370Z,85.71
2018-08-16T00:23:52.135Z,85.32
2018-08-16T00:24:52.369Z,85.51
2018-08-16T00:25:52.374Z,85.89
2018-08-16T00:26:52.111Z,85.99
2018-08-16T00:27:52.383Z,85.8
2018-08-16T00:28:52.114Z,86.09
2018-08-16T00:29:52.383Z,85.99
2018-08-16T00:30:52.372Z,86.09
2018-08-16T00:31:52.377Z,86.57
2018-08-16T00:32:52.385Z,86.76
2018-08-16T00:33:52.121Z,86.66
2018-08-16T00:34:52.381Z,87.19
2018-08-16T00:35:52.121Z,86.18
2018-08-16T00:36:52.378Z,86.72
2018-08-16T00:37:52.381Z,86.52
2018-08-16T00:38:52.126Z,86.72
2018-08-16T00:39:52.120Z,86.81
2018-08-16T00:40:52.397Z,87.29
2018-08-16T00:41:52.388Z,87.39
2018-08-16T00:42:52.125Z,87.01
2018-08-16T00:43:52.389Z,86.91
2018-08-16T00:44:52.394Z,86.72
2018-08-16T00:45:52.385Z,86.91
2018-08-16T00:46:52.385Z,87.49
2018-08-16T00:47:52.388Z,87.1
2018-08-16T00:48:52.134Z,87.77
2018-08-16T00:49:52.394Z,87.49
2018-08-16T00:50:52.389Z,87.39
2018-08-16T00:51:52.400Z,87.01
2018-08-16T00:52:52.441Z,87.19
2018-08-16T00:53:52.398Z,87.58
2018-08-16T00:54:52.137Z,87.19
2018-08-16T00:55:52.392Z,86.85
2018-08-16T00:56:52.394Z,87.19
2018-08-16T00:57:52.395Z,86.85
2018-08-16T00:58:52.394Z,87.15
2018-08-16T00:59:52.397Z,86.91
2018-08-16T01:00:52.139Z,86.91
2018-08-16T01:01:52.395Z,87.19
2018-08-16T01:02:52.397Z,87.19
2018-08-16T01:03:52.546Z,87.87
2018-08-16T01:04:52.399Z,87.68
2018-08-16T01:05:52.146Z,87.77
2018-08-16T01:06:52.403Z,87.87
2018-08-16T01:07:52.157Z,87.77
2018-08-16T01:08:52.150Z,87.77
2018-08-16T01:09:52.408Z,88.25
2018-08-16T01:10:52.402Z,88.45
2018-08-16T01:11:52.155Z,88.06
2018-08-16T01:12:52.408Z,88.93
2018-08-16T01:13:52.408Z,88.73
2018-08-16T01:14:52.403Z,88.45
2018-08-16T01:15:52.406Z,89.31
2018-08-16T01:16:52.409Z,89.6
2018-08-16T01:17:52.410Z,89.31
2018-08-16T01:18:52.407Z,89.69
2018-08-16T01:19:52.421Z,90.27
2018-08-16T01:20:52.409Z,89.79
2018-08-16T01:21:52.411Z,90.08
2018-08-16T01:22:52.409Z,89.6
2018-08-16T01:23:52.412Z,89.79
2018-08-16T01:24:52.410Z,89.4
2018-08-16T01:25:52.420Z,89.6
2018-08-16T01:26:52.159Z,89.5
2018-08-16T01:27:52.410Z,89.12
2018-08-16T01:28:52.160Z,89.31
2018-08-16T01:29:52.417Z,89.02
2018-08-16T01:30:52.159Z,89.12
2018-08-16T01:31:52.157Z,88.93
2018-08-16T01:32:52.444Z,89.6
2018-08-16T01:33:53.467Z,90.17
2018-08-16T01:34:52.429Z,89.89
2018-08-16T01:35:52.420Z,89.6
2018-08-16T01:36:52.428Z,89.6
2018-08-16T01:37:52.162Z,89.22
2018-08-16T01:38:52.425Z,89.22
2018-08-16T01:39:52.160Z,89.12
2018-08-16T01:40:52.413Z,88.64
2018-08-16T01:41:52.421Z,88.54
2018-08-16T01:42:52.417Z,88.59
2018-08-16T01:43:52.165Z,88.68
2018-08-16T01:44:52.418Z,88.39
2018-08-16T01:45:52.423Z,87.72
2018-08-16T01:46:52.414Z,88.2
2018-08-16T01:47:52.465Z,87.72
2018-08-16T01:48:52.424Z,87.62
2018-08-16T01:49:52.162Z,87.72
2018-08-16T01:50:52.428Z,89.07
2018-08-16T01:51:52.421Z,88.97
2018-08-16T01:52:52.422Z,88.59
2018-08-16T01:53:52.422Z,88.64
2018-08-16T01:54:52.418Z,88.73
2018-08-16T01:55:52.170Z,88.73
2018-08-16T01:56:52.425Z,88.93
2018-08-16T01:57:52.433Z,89.12
2018-08-16T01:58:52.179Z,89.16
2018-08-16T01:59:52.181Z,88.93
2018-08-16T02:00:52.440Z,89.5
2018-08-16T02:01:52.429Z,89.4
2018-08-16T02:02:52.433Z,89.79
2018-08-16T02:03:52.438Z,89.79
2018-08-16T02:04:52.441Z,89.98
2018-08-16T02:05:52.438Z,89.79
2018-08-16T02:06:52.431Z,89.4
2018-08-16T02:07:52.455Z,89.5
2018-08-16T02:08:52.179Z,89.79
2018-08-16T02:09:52.175Z,89.12
2018-08-16T02:10:52.437Z,89.12
2018-08-16T02:11:52.195Z,89.12
2018-08-16T02:12:52.180Z,89.4
2018-08-16T02:13:52.179Z,89.69
2018-08-16T02:14:52.432Z,89.79
2018-08-16T02:15:52.184Z,89.4
2018-08-16T02:16:52.442Z,89.69
2018-08-16T02:17:52.179Z,90.08
2018-08-16T02:18:52.438Z,89.79
2018-08-16T02:19:52.181Z,89.79
2018-08-16T02:20:52.448Z,90.08
2018-08-16T02:21:52.442Z,89.79
2018-08-16T02:22:52.441Z,90.46
2018-08-16T02:23:52.449Z,90.27
2018-08-16T02:24:52.184Z,90.37
2018-08-16T02:25:52.446Z,90.08
2018-08-16T02:26:52.188Z,90.66
2018-08-16T02:27:52.469Z,90.56
2018-08-16T02:28:52.467Z,90.94
2018-08-16T02:29:52.473Z,90.75
2018-08-16T02:30:52.191Z,91.47
2018-08-16T02:31:52.470Z,91.57
2018-08-16T02:32:52.448Z,91.28
2018-08-16T02:33:52.454Z,91.57
2018-08-16T02:34:52.456Z,90.99
2018-08-16T02:35:52.449Z,91.38
2018-08-16T02:36:52.449Z,90.99
2018-08-16T02:37:52.470Z,91.86
2018-08-16T02:38:52.203Z,92.05
2018-08-16T02:39:52.200Z,92.24
2018-08-16T02:40:52.456Z,92.33
2018-08-16T02:41:52.452Z,92.33
2018-08-16T02:42:52.449Z,93.1
2018-08-16T02:43:52.455Z,92.63
2018-08-16T02:44:52.460Z,93.3
2018-08-16T02:45:52.455Z,93.49
2018-08-16T02:46:52.207Z,93.59
2018-08-16T02:47:52.200Z,93.73
2018-08-16T02:48:52.458Z,93.97
2018-08-16T02:49:52.461Z,93.82
2018-08-16T02:50:52.535Z,94.21
2018-08-16T02:51:52.450Z,94.31
2018-08-16T02:52:52.204Z,94.31
2018-08-16T02:53:52.198Z,94.49
2018-08-16T02:54:52.508Z,93.82
2018-08-16T02:55:52.203Z,94.02
2018-08-16T02:56:52.211Z,93.87
2018-08-16T02:57:52.205Z,93.2
2018-08-16T02:58:52.453Z,93.1
2018-08-16T02:59:52.461Z,93.1
2018-08-16T03:00:52.467Z,93.1
2018-08-16T03:01:52.462Z,92.82
2018-08-16T03:02:52.203Z,92.82
2018-08-16T03:03:52.221Z,92.82
2018-08-16T03:04:52.204Z,93.01
2018-08-16T03:05:52.467Z,92.63
2018-08-16T03:06:52.466Z,93.1
2018-08-16T03:07:52.202Z,93.01
2018-08-16T03:08:52.199Z,92.91
2018-08-16T03:09:52.221Z,92.63
2018-08-16T03:10:52.203Z,93.3
2018-08-16T03:11:52.459Z,93.01
2018-08-16T03:12:52.207Z,92.53
2018-08-16T03:13:52.203Z,93.1
2018-08-16T03:14:52.462Z,92.91
2018-08-16T03:15:52.215Z,92.77
2018-08-16T03:16:52.465Z,93.68
2018-08-16T03:17:52.464Z,94.02
2018-08-16T03:18:52.457Z,94.69
2018-08-16T03:19:52.463Z,94.59
2018-08-16T03:20:52.458Z,94.59
2018-08-16T03:21:52.464Z,94.69
2018-08-16T03:22:52.467Z,94.21
2018-08-16T03:23:52.471Z,94.59
2018-08-16T03:24:52.210Z,94.79
2018-08-16T03:25:52.208Z,94.88
2018-08-16T03:26:52.213Z,94.49
2018-08-16T03:27:52.212Z,94.69
2018-08-16T03:28:52.207Z,95.46
2018-08-16T03:29:52.467Z,94.59
2018-08-16T03:30:52.219Z,95.55
2018-08-16T03:31:52.474Z,95.46
2018-08-16T03:32:52.485Z,95.26
2018-08-16T03:33:52.469Z,95.46
2018-08-16T03:34:52.470Z,95.55
2018-08-16T03:35:52.489Z,95.07
2018-08-16T03:36:52.217Z,95.17
2018-08-16T03:37:52.513Z,95.55
2018-08-16T03:38:52.476Z,95.75
2018-08-16T03:39:52.466Z,96.42
2018-08-16T03:40:52.479Z,96.32
2018-08-16T03:41:52.472Z,95.36
2018-08-16T03:42:52.470Z,95.65
2018-08-16T03:43:52.460Z,95.65
2018-08-16T03:44:52.471Z,95.55
2018-08-16T03:45:52.474Z,95.36
2018-08-16T03:46:52.469Z,95.65
2018-08-16T03:47:52.213Z,95.55
2018-08-16T03:48:52.460Z,95.36
2018-08-16T03:49:52.464Z,95.36
2018-08-16T03:50:52.459Z,94.88
2018-08-16T03:51:52.209Z,95.55
2018-08-16T03:52:52.463Z,95.46
2018-08-16T03:53:52.459Z,95.84
2018-08-16T03:54:52.463Z,95.65
2018-08-16T03:55:52.463Z,95.75
2018-08-16T03:56:52.456Z,95.41
2018-08-16T03:57:52.465Z,96.03
2018-08-16T03:58:52.203Z,96.13
2018-08-16T03:59:52.204Z,96.22
2018-08-16T04:00:52.476Z,96.13
2018-08-16T04:01:52.458Z,96.22
2018-08-16T04:02:52.462Z,96.51
2018-08-16T04:03:52.462Z,96.22
2018-08-16T04:04:52.202Z,96.94
2018-08-16T04:05:52.473Z,96.27
2018-08-16T04:06:52.456Z,97.23
2018-08-16T04:07:52.209Z,97.14
2018-08-16T04:08:52.456Z,97.9
2018-08-16T04:09:52.202Z,98.1
2018-08-16T04:10:52.460Z,98.19
2018-08-16T04:11:52.458Z,98
2018-08-16T04:12:52.456Z,97.33
2018-08-16T04:13:52.216Z,96.85
2018-08-16T04:14:52.204Z,97.14
2018-08-16T04:15:52.202Z,97.9
2018-08-16T04:16:52.466Z,98.1
2018-08-16T04:17:52.457Z,98
2018-08-16T04:18:52.465Z,98.1
2018-08-16T04:19:52.198Z,98.19
2018-08-16T04:20:52.461Z,97.9
2018-08-16T04:21:52.470Z,98.1
2018-08-16T04:22:52.459Z,98.1
2018-08-16T04:23:52.467Z,98
2018-08-16T04:24:52.201Z,97.61
2018-08-16T04:25:52.216Z,98.1
2018-08-16T04:26:52.453Z,98.1
2018-08-16T04:27:52.460Z,98.57
2018-08-16T04:28:52.217Z,98
2018-08-16T04:29:52.207Z,98.05
2018-08-16T04:30:52.209Z,97.9
2018-08-16T04:31:52.453Z,97.38
2018-08-16T04:32:52.463Z,97.38
2018-08-16T04:33:52.197Z,97.19
2018-08-16T04:34:52.452Z,96.32
2018-08-16T04:35:52.210Z,96.42
2018-08-16T04:36:52.453Z,96.51
2018-08-16T04:37:52.462Z,95.84
2018-08-16T04:38:53.011Z,95.26
2018-08-16T04:39:52.458Z,95.84
2018-08-16T04:40:52.199Z,95.55
2018-08-16T04:41:52.277Z,95.65
2018-08-16T04:42:52.451Z,95.46
2018-08-16T04:43:52.464Z,94.88
2018-08-16T04:44:52.452Z,94.69
2018-08-16T04:45:52.450Z,94.88
2018-08-16T04:46:52.466Z,94.79
2018-08-16T04:47:52.459Z,94.26
2018-08-16T04:48:52.455Z,93.2
2018-08-16T04:49:52.191Z,92.53
2018-08-16T04:50:52.447Z,92.05
2018-08-16T04:51:52.456Z,91.66
2018-08-16T04:52:52.450Z,91.23
2018-08-16T04:53:52.198Z,89.79
2018-08-16T04:54:52.457Z,89.12
2018-08-16T04:55:52.477Z,88.73
2018-08-16T04:56:52.227Z,88.3
2018-08-16T04:57:52.458Z,87.34
2018-08-16T04:58:52.204Z,86.76
2018-08-16T04:59:52.202Z,86.38
2018-08-16T05:00:52.464Z,86.47
2018-08-16T05:01:52.215Z,86.66
2018-08-16T05:02:52.206Z,86.9
2018-08-16T05:03:52.207Z,85.36
2018-08-16T05:04:52.211Z,84.88
2018-08-16T05:05:52.220Z,84.3
2018-08-16T05:06:52.480Z,83
2018-08-16T05:07:52.475Z,82.42
2018-08-16T05:08:52.224Z,81.27
2018-08-16T05:09:52.226Z,80.73
2018-08-16T05:10:52.510Z,80.54
2018-08-16T05:11:52.483Z,80.06
2018-08-16T05:12:52.485Z,80.25
2018-08-16T05:13:52.226Z,80.35
2018-08-16T05:14:52.267Z,80.35
2018-08-16T05:15:52.238Z,79.28
2018-08-16T05:16:52.489Z,79
2018-08-16T05:17:52.233Z,78.61
2018-08-16T05:18:52.237Z,78.52
2018-08-16T05:19:52.502Z,78.08
2018-08-16T05:20:52.524Z,77.78
2018-08-16T05:21:52.259Z,78.08
2018-08-16T05:22:52.262Z,78.65
2018-08-16T05:23:52.601Z,78.27
2018-08-16T05:24:52.513Z,77.59
2018-08-16T05:25:52.521Z,76.34
2018-08-16T05:26:52.520Z,76.18
2018-08-16T05:27:52.519Z,75.13
2018-08-16T05:28:52.263Z,73.91
2018-08-16T05:29:52.269Z,73.05
2018-08-16T05:30:52.523Z,72.85
2018-08-16T05:31:52.548Z,72.85
2018-08-16T05:32:52.277Z,72.56
2018-08-16T05:33:52.552Z,73.24
2018-08-16T05:34:52.289Z,73.24
2018-08-16T05:35:52.543Z,73.91
2018-08-16T05:36:52.615Z,74.07
2018-08-16T05:37:52.544Z,75.42
2018-08-16T05:38:52.548Z,75.76
2018-08-16T05:39:52.558Z,76.06
2018-08-16T05:40:52.311Z,77.11
2018-08-16T05:41:52.304Z,78.03
2018-08-16T05:42:52.431Z,78.23
2018-08-16T05:43:52.319Z,78.9
2018-08-16T05:44:52.576Z,79.1
2018-08-16T05:45:52.569Z,78.9
2018-08-16T05:46:52.585Z,79.15
2018-08-16T05:47:52.320Z,79.82
2018-08-16T05:48:52.325Z,79.96
2018-08-16T05:49:52.325Z,79.92
2018-08-16T05:50:52.820Z,80.4
2018-08-16T05:51:52.590Z,79.92
2018-08-16T05:52:52.592Z,80.79
2018-08-16T05:53:52.590Z,80.5
2018-08-16T05:54:52.336Z,81.65
2018-08-16T05:55:52.337Z,79.58
2018-08-16T05:56:52.598Z,79
2018-08-16T05:57:52.601Z,78.61
2018-08-16T05:58:52.355Z,79
2018-08-16T05:59:52.363Z,79.28
2018-08-16T06:00:52.366Z,79.58
2018-08-16T06:01:52.620Z,79.67
2018-08-16T06:02:52.624Z,80.11
2018-08-16T06:03:52.624Z,81.07
2018-08-16T06:04:52.362Z,81.37
2018-08-16T06:05:52.628Z,81.56
2018-08-16T06:06:52.376Z,81.37
2018-08-16T06:07:52.625Z,80.88
2018-08-16T06:08:52.380Z,79.58
2018-08-16T06:09:52.629Z,77.84
2018-08-16T06:10:52.636Z,76.15
2018-08-16T06:11:52.373Z,74.36
2018-08-16T06:12:52.376Z,72.56
2018-08-16T06:13:52.378Z,70.86
2018-08-16T06:14:52.639Z,69.55
2018-08-16T06:15:52.386Z,68.91
2018-08-16T06:16:52.644Z,69.84
2018-08-16T06:17:52.678Z,70.61
2018-08-16T06:18:52.676Z,70.8
2018-08-16T06:19:52.399Z,72.02
2018-08-16T06:20:52.679Z,72.66
2018-08-16T06:21:52.660Z,72.08
2018-08-16T06:22:52.671Z,72.12
2018-08-16T06:23:52.679Z,70.86
2018-08-16T06:24:52.666Z,70.03
2018-08-16T06:25:52.691Z,68.23
2018-08-16T06:26:52.425Z,67.2
2018-08-16T06:27:52.684Z,65.4
2018-08-16T06:28:52.428Z,64.08
2018-08-16T06:29:52.430Z,62.92
2018-08-16T06:30:52.695Z,62.08
2018-08-16T06:31:52.707Z,60.5
2018-08-16T06:32:52.704Z,59.46
2018-08-16T06:33:52.449Z,57.71
2018-08-16T06:34:52.451Z,57.65
2018-08-16T06:35:52.721Z,56.29
2018-08-16T06:36:52.464Z,56.03
2018-08-16T06:37:52.728Z,55.08
2018-08-16T06:38:52.804Z,53.75
2018-08-16T06:39:52.768Z,54.34
2018-08-16T06:40:52.742Z,53.95
2018-08-16T06:41:52.754Z,54.31
2018-08-16T06:42:52.538Z,54.41
2018-08-16T06:43:52.759Z,54.7
2018-08-16T06:44:52.509Z,53.95
2018-08-16T06:45:52.766Z,53.08
2018-08-16T06:46:52.536Z,52.98
2018-08-16T06:47:52.790Z,53
2018-08-16T06:48:52.539Z,51.65
2018-08-16T06:49:52.544Z,50.89
2018-08-16T06:50:52.546Z,50.8
2018-08-16T06:51:52.824Z,50.7
2018-08-16T06:52:52.561Z,50.14
2018-08-16T06:53:52.567Z,50.14
2018-08-16T06:54:52.569Z,49.46
2018-08-16T06:55:52.837Z,49.29
2018-08-16T06:56:52.850Z,49.1
2018-08-16T06:57:52.585Z,48.9
2018-08-16T06:58:52.856Z,48.9
2018-08-16T06:59:52.603Z,48.41
2018-08-16T07:00:52.617Z,48.51
2018-08-16T07:01:52.621Z,48.54
2018-08-16T07:02:52.917Z,47.56
2018-08-16T07:03:52.898Z,48.15
2018-08-16T07:04:52.958Z,48.25
2018-08-16T07:05:52.901Z,47.37
2018-08-16T07:06:52.910Z,47.47
2018-08-16T07:07:52.687Z,47.47
2018-08-16T07:08:52.668Z,46.91
2018-08-16T07:09:52.925Z,46.54
2018-08-16T07:10:52.678Z,45.95
2018-08-16T07:11:53.029Z,45.57
2018-08-16T07:12:52.692Z,45.29
2018-08-16T07:13:52.697Z,44.64
2018-08-16T07:14:52.701Z,44.34
2018-08-16T07:15:52.972Z,44.54
2018-08-16T07:16:52.976Z,45.51
2018-08-16T07:17:52.981Z,45.88
2018-08-16T07:18:53.210Z,44.81
2018-08-16T07:19:52.998Z,44.9
2018-08-16T07:20:53.010Z,44.44
2018-08-16T07:21:53.017Z,44.24
2018-08-16T07:22:53.013Z,44.34
2018-08-16T07:23:53.026Z,44.44
2018-08-16T07:24:53.340Z,44.05
2018-08-16T07:25:52.783Z,43.19
2018-08-16T07:26:53.043Z,43
2018-08-16T07:27:52.807Z,43.1
2018-08-16T07:28:52.814Z,43.41
2018-08-16T07:29:53.146Z,42.24
2018-08-16T07:30:52.818Z,41.77
2018-08-16T07:31:52.834Z,42.26
2018-08-16T07:32:52.839Z,41.77
2018-08-16T07:33:53.109Z,42.16
2018-08-16T07:34:53.106Z,43.8
2018-08-16T07:35:53.126Z,44.85
2018-08-16T07:36:53.138Z,46.66
2018-08-16T07:37:52.908Z,46.83
2018-08-16T07:38:53.140Z,48.34
2018-08-16T07:39:52.901Z,49.12
2018-08-16T07:40:52.905Z,50.34
2018-08-16T07:41:53.180Z,50.89
2018-08-16T07:42:53.160Z,52.23
2018-08-16T07:43:52.929Z,51.55
2018-08-16T07:44:53.181Z,51.09
2018-08-16T07:45:53.641Z,50.14
2018-08-16T07:46:53.204Z,50.73
2018-08-16T07:47:53.200Z,51.11
2018-08-16T07:48:52.944Z,51.09
2018-08-16T07:49:53.204Z,51.31
2018-08-16T07:50:53.222Z,49.85
2018-08-16T07:51:53.321Z,48.8
2018-08-16T07:52:53.222Z,47.37
2018-08-16T07:53:52.971Z,46.23
2018-08-16T07:54:53.238Z,45.98
2018-08-16T07:55:53.242Z,45.03
2018-08-16T07:56:53.316Z,43.68
2018-08-16T07:57:53.255Z,43.29
2018-08-16T07:58:53.000Z,43.02
2018-08-16T07:59:53.265Z,42.63
2018-08-16T08:00:53.284Z,41.48
2018-08-16T08:01:53.025Z,42.19
2018-08-16T08:02:53.286Z,41.97
2018-08-16T08:03:53.308Z,40.92
2018-08-16T08:04:53.047Z,40.92
2018-08-16T08:05:53.312Z,40.45
2018-08-16T08:06:53.349Z,39.88
2018-08-16T08:07:53.324Z,39.69
2018-08-16T08:08:53.449Z,39.69
2018-08-16T08:09:53.513Z,39.33
2018-08-16T08:10:53.353Z,38.55
2018-08-16T08:11:53.358Z,38.35
2018-08-16T08:12:53.100Z,38.65
2018-08-16T08:13:53.359Z,38.65
2018-08-16T08:14:53.115Z,37.49
2018-08-16T08:15:53.388Z,37.19
2018-08-16T08:16:53.390Z,37.69
2018-08-16T08:17:53.392Z,37.88
2018-08-16T08:18:53.417Z,37.02
2018-08-16T08:19:53.409Z,36.63
2018-08-16T08:20:53.182Z,36.63
2018-08-16T08:21:53.168Z,36.43
2018-08-16T08:22:53.176Z,36.24
2018-08-16T08:23:53.441Z,35.96
2018-08-16T08:24:53.448Z,37.04
2018-08-16T08:25:53.458Z,36.16
2018-08-16T08:26:53.232Z,34.98
2018-08-16T08:27:53.488Z,35.25
2018-08-16T08:28:53.506Z,36.55
2018-08-16T08:29:53.499Z,36.63
2018-08-16T08:30:53.243Z,36.71
2018-08-16T08:31:53.505Z,37
2018-08-16T08:32:53.259Z,37.27
2018-08-16T08:33:53.541Z,36.98
2018-08-16T08:34:53.533Z,36.98
2018-08-16T08:35:53.557Z,37.1
2018-08-16T08:36:53.543Z,36.41
2018-08-16T08:37:53.559Z,36.32
2018-08-16T08:38:53.359Z,35.55
2018-08-16T08:39:53.585Z,36.25
2018-08-16T08:40:53.598Z,35.49
2018-08-16T08:41:53.597Z,34.8
2018-08-16T08:42:53.596Z,35.49
2018-08-16T08:43:53.351Z,35.29
2018-08-16T08:44:53.363Z,34.8
2018-08-16T08:45:53.365Z,34.98
2018-08-16T08:46:53.633Z,37.49
2018-08-16T08:47:53.637Z,38.65
2018-08-16T08:48:53.646Z,40.08
2018-08-16T08:49:53.653Z,41.21
2018-08-16T08:50:53.667Z,42.34
2018-08-16T08:51:53.433Z,43.37
2018-08-16T08:52:53.681Z,45.39
2018-08-16T08:53:53.688Z,45.76
2018-08-16T08:54:53.762Z,49.66
2018-08-16T08:55:53.708Z,48.17
2018-08-16T08:56:53.710Z,48.73
2018-08-16T08:57:53.718Z,48.25
2018-08-16T08:58:53.738Z,48.44
2018-08-16T08:59:53.503Z,48.8
2018-08-16T09:00:53.781Z,48.25
2018-08-16T09:01:53.490Z,49.68
2018-08-16T09:02:53.753Z,49.39
2018-08-16T09:03:53.499Z,48.61
2018-08-16T09:04:53.762Z,48.9
2018-08-16T09:05:53.771Z,48.8
2018-08-16T09:06:53.888Z,50.56
2018-08-16T09:07:53.792Z,50.73
2018-08-16T09:08:53.548Z,51.01
2018-08-16T09:09:53.812Z,51.7
2018-08-16T09:10:53.560Z,49.17
2018-08-16T09:11:53.812Z,50.34
2018-08-16T09:12:53.819Z,50.14
2018-08-16T09:13:53.829Z,51.11
2018-08-16T09:14:53.679Z,50.92
2018-08-16T09:15:53.575Z,49.66
2018-08-16T09:16:53.855Z,48.58
2018-08-16T09:17:53.862Z,49.85
2018-08-16T09:18:53.880Z,51.14
2018-08-16T09:19:54.406Z,50.75
2018-08-16T09:20:53.617Z,50.95
2018-08-16T09:21:53.895Z,50.14
2018-08-16T09:22:53.622Z,49.17
2018-08-16T09:23:53.950Z,49.37
2018-08-16T09:24:53.893Z,49.66
2018-08-16T09:25:53.894Z,50.63
2018-08-16T09:26:53.653Z,50.12
2018-08-16T09:27:53.905Z,50.14
2018-08-16T09:28:53.906Z,50.14
2018-08-16T09:29:53.655Z,50.34
2018-08-16T09:30:53.656Z,50.04
2018-08-16T09:31:53.921Z,49.66
2018-08-16T09:32:53.927Z,50.82
2018-08-16T09:33:53.681Z,51.5
2018-08-16T09:34:53.934Z,51.7
2018-08-16T09:35:53.942Z,51.31
2018-08-16T09:36:53.692Z,50.07
2018-08-16T09:37:53.953Z,50.04
2018-08-16T09:38:53.708Z,48.97
2018-08-16T09:39:53.873Z,48.1
2018-08-16T09:40:53.968Z,48.61
2018-08-16T09:41:53.974Z,47.15
2018-08-16T09:42:53.715Z,47.93
2018-08-16T09:43:53.729Z,46.37
2018-08-16T09:44:53.744Z,46.47
2018-08-16T09:45:53.987Z,48.22
2018-08-16T09:46:53.749Z,49.19
2018-08-16T09:47:53.747Z,49.68
2018-08-16T09:48:54.016Z,48.8
2018-08-16T09:49:54.017Z,48.32
2018-08-16T09:50:53.760Z,48.61
2018-08-16T09:51:54.024Z,49.68
2018-08-16T09:52:53.776Z,47.34
2018-08-16T09:53:54.035Z,46.47
2018-08-16T09:54:54.043Z,47.44
2018-08-16T09:55:53.788Z,46.5
2018-08-16T09:56:54.053Z,45.72
2018-08-16T09:57:54.067Z,46.11
2018-08-16T09:58:53.813Z,42.11
2018-08-16T09:59:54.061Z,44.74
2018-08-16T10:00:54.068Z,44.94
2018-08-16T10:01:53.828Z,42.63
2018-08-16T10:02:54.082Z,42.14
2018-08-16T10:03:54.085Z,43.4
2018-08-16T10:04:54.090Z,41.65
2018-08-16T10:05:53.840Z,41.85
2018-08-16T10:06:54.112Z,42.14
2018-08-16T10:07:54.104Z,41.75
2018-08-16T10:08:54.112Z,40.09
2018-08-16T10:09:54.122Z,40.01
2018-08-16T10:10:54.121Z,42.82
2018-08-16T10:11:53.870Z,41.09
2018-08-16T10:12:54.137Z,41.86
2018-08-16T10:13:53.882Z,41.77
2018-08-16T10:14:54.152Z,41.57
2018-08-16T10:15:54.157Z,42.04
2018-08-16T10:16:53.903Z,40.19
2018-08-16T10:17:53.907Z,41.36
2018-08-16T10:18:54.162Z,41.55
2018-08-16T10:19:54.178Z,43.19
2018-08-16T10:20:54.380Z,43.09
2018-08-16T10:21:53.932Z,42.11
2018-08-16T10:22:54.187Z,44.33
2018-08-16T10:23:53.941Z,44.72
2018-08-16T10:24:54.196Z,44.82
2018-08-16T10:25:53.942Z,44.92
2018-08-16T10:26:54.237Z,41.9
2018-08-16T10:27:54.222Z,44.82
2018-08-16T10:28:54.221Z,45.79
2018-08-16T10:29:54.214Z,44.92
2018-08-16T10:30:54.228Z,42.39
2018-08-16T10:31:53.967Z,42.11
2018-08-16T10:32:54.239Z,41.24
2018-08-16T10:33:53.980Z,40.97
2018-08-16T10:34:53.987Z,42.82
2018-08-16T10:35:54.253Z,41.94
2018-08-16T10:36:54.253Z,43.43
2018-08-16T10:37:54.001Z,44.1
2018-08-16T10:38:54.275Z,42.74
2018-08-16T10:39:54.267Z,41.09
2018-08-16T10:40:54.013Z,39.65
2018-08-16T10:41:54.045Z,41.11
2018-08-16T10:42:54.290Z,39.45
2018-08-16T10:43:54.287Z,39.72
2018-08-16T10:44:55.100Z,41.19
2018-08-16T10:45:54.042Z,43.13
2018-08-16T10:46:54.045Z,43.71
2018-08-16T10:47:54.321Z,41.19
2018-08-16T10:48:54.060Z,41.55
2018-08-16T10:49:54.331Z,41.09
2018-08-16T10:50:54.324Z,42.14
2018-08-16T10:51:54.331Z,44.49
2018-08-16T10:52:54.357Z,44.2
2018-08-16T10:53:54.413Z,42.16
2018-08-16T10:54:54.354Z,40.99
2018-08-16T10:55:54.366Z,40.6
2018-08-16T10:56:54.102Z,40.11
2018-08-16T10:57:54.363Z,39.24
2018-08-16T10:58:54.124Z,40.13
2018-08-16T10:59:54.118Z,40.13
2018-08-16T11:00:54.390Z,39.16
2018-08-16T11:01:54.388Z,38.77
2018-08-16T11:02:54.402Z,40.52
2018-08-16T11:03:54.408Z,39.36
2018-08-16T11:04:54.147Z,39.43
2018-08-16T11:05:54.483Z,39.92
2018-08-16T11:06:54.167Z,39.82
2018-08-16T11:07:54.203Z,39.82
2018-08-16T11:08:54.424Z,41.77
2018-08-16T11:09:54.170Z,42.14
2018-08-16T11:10:54.433Z,40.8
2018-08-16T11:11:54.185Z,39.62
2018-08-16T11:12:54.441Z,39.24
2018-08-16T11:13:54.455Z,40.41
2018-08-16T11:14:54.452Z,40.21
2018-08-16T11:15:54.201Z,39.82
2018-08-16T11:16:54.206Z,40.21
2018-08-16T11:17:54.215Z,40.7
2018-08-16T11:18:54.235Z,39.82
2018-08-16T11:19:54.482Z,40.31
2018-08-16T11:20:54.489Z,42.45
2018-08-16T11:21:54.632Z,41.28
2018-08-16T11:22:54.235Z,41.96
2018-08-16T11:23:54.243Z,42.82
2018-08-16T11:24:54.500Z,42.14
2018-08-16T11:25:54.243Z,39.61
2018-08-16T11:26:54.245Z,41.26
2018-08-16T11:27:54.257Z,41.46
2018-08-16T11:28:54.535Z,42.04
2018-08-16T11:29:54.549Z,41.75
2018-08-16T11:30:54.550Z,41.16
2018-08-16T11:31:54.287Z,41.96
2018-08-16T11:32:54.549Z,41.96
2018-08-16T11:33:54.555Z,40.11
2018-08-16T11:34:54.354Z,41.67
2018-08-16T11:35:54.565Z,40.11
2018-08-16T11:36:54.570Z,40.31
2018-08-16T11:37:54.778Z,40.01
2018-08-16T11:38:54.320Z,41.28
2018-08-16T11:39:54.332Z,39.55
2018-08-16T11:40:54.601Z,38.57
2018-08-16T11:41:54.343Z,38.48
2018-08-16T11:42:54.605Z,38.48
2018-08-16T11:43:54.609Z,41.81
2018-08-16T11:44:54.610Z,39.76
2018-08-16T11:45:54.630Z,38.59
2018-08-16T11:46:54.356Z,40.55
2018-08-16T11:47:54.629Z,39.08
2018-08-16T11:48:54.624Z,38.79
2018-08-16T11:49:54.634Z,38.18
2018-08-16T11:50:54.641Z,37.79
2018-08-16T11:51:54.647Z,37.7
2018-08-16T11:52:54.392Z,37.7
2018-08-16T11:53:54.408Z,39.84
2018-08-16T11:54:54.663Z,41.2
2018-08-16T11:55:54.411Z,39.36
2018-08-16T11:56:54.416Z,39.24
2018-08-16T11:57:54.681Z,41.09
2018-08-16T11:58:54.686Z,42.74
2018-08-16T11:59:54.441Z,41.09
2018-08-16T12:00:54.707Z,39.75
2018-08-16T12:01:54.443Z,41.79
2018-08-16T12:02:54.706Z,41.13
2018-08-16T12:03:54.724Z,38.89
2018-08-16T12:04:54.457Z,38.3
2018-08-16T12:05:54.714Z,37.71
2018-08-16T12:06:54.724Z,37.71
2018-08-16T12:07:54.731Z,37.52
2018-08-16T12:08:54.496Z,39.08
2018-08-16T12:09:54.499Z,39.86
2018-08-16T12:10:54.501Z,40.45
2018-08-16T12:11:54.759Z,40.06
2018-08-16T12:12:54.775Z,40.16
2018-08-16T12:13:54.515Z,40.35
2018-08-16T12:14:54.769Z,39.67
2018-08-16T12:15:54.516Z,39.1
2018-08-16T12:16:54.789Z,38.79
2018-08-16T12:17:54.792Z,38.71
2018-08-16T12:18:54.539Z,38.69
2018-08-16T12:19:54.556Z,37.35
2018-08-16T12:20:54.841Z,37.13
2018-08-16T12:21:54.800Z,36.74
2018-08-16T12:22:54.555Z,38.42
2018-08-16T12:23:54.836Z,36.86
2018-08-16T12:24:54.567Z,37.43
2018-08-16T12:25:54.831Z,37.91
2018-08-16T12:26:54.831Z,37.13
2018-08-16T12:27:54.594Z,37.43
2018-08-16T12:28:54.646Z,37.91
2018-08-16T12:29:54.849Z,39.37
2018-08-16T12:30:54.848Z,37.83
2018-08-16T12:31:54.599Z,38.1
2018-08-16T12:32:54.872Z,38.69
2018-08-16T12:33:54.612Z,41.15
2018-08-16T12:34:55.054Z,38.42
2018-08-16T12:35:54.881Z,37.63
2018-08-16T12:36:54.883Z,39.88
2018-08-16T12:37:55.171Z,38.32
2018-08-16T12:38:54.640Z,39.78
2018-08-16T12:39:54.651Z,39
2018-08-16T12:40:54.947Z,37.25
2018-08-16T12:41:54.663Z,36.66
2018-08-16T12:42:54.920Z,37.25
2018-08-16T12:43:54.940Z,39.2
2018-08-16T12:44:54.947Z,37.35
2018-08-16T12:45:54.681Z,36.18
2018-08-16T12:46:54.676Z,37.23
2018-08-16T12:47:55.067Z,38.9
2018-08-16T12:48:54.706Z,38.89
2018-08-16T12:49:54.982Z,36.86
2018-08-16T12:50:54.973Z,37.05
2018-08-16T12:51:54.986Z,38.42
2018-08-16T12:52:54.978Z,38.61
2018-08-16T12:53:54.733Z,35.69
2018-08-16T12:54:54.985Z,36.08
2018-08-16T12:55:54.988Z,36.96
2018-08-16T12:56:54.784Z,38.61